Corona Range LRC Data

Date Time Air Temperature Relative Humidity Wind Speed Wind Dir. Rain Solar Radiation Soil Temperature
2m 2m 3m 3m 10cm
US/Mountain F % MPH deg in MJ/m^2 F
max min avg max min avg max avg avg max min avg
2019-12-14 01:00:00 47.0 44.7 46.4 58.1 52.4 53.9 20.5 13.8 235.6 0.00 0.0000000 41.3 40.9 41.1
2019-12-14 02:00:00 46.3 44.5 45.4 55.6 53.0 54.0 19.8 12.8 239.6 0.00 0.0000000 40.9 40.7 40.8
2019-12-14 03:00:00 44.5 43.6 44.0 56.9 53.7 55.3 18.3 13.0 244.4 0.00 0.0000000 40.7 40.6 40.6
2019-12-14 04:00:00 44.6 43.7 44.1 54.5 52.1 53.0 22.4 14.3 240.9 0.00 0.0000000 40.6 40.4 40.5
2019-12-14 05:00:00 44.4 42.8 43.6 53.8 49.2 52.0 19.8 13.5 238.6 0.00 0.0000000 40.4 40.3 40.4
2019-12-14 06:00:00 45.2 44.0 44.5 50.1 46.6 48.5 23.2 15.3 231.5 0.00 0.0000000 40.3 40.1 40.2
2019-12-14 07:00:00 44.3 42.6 43.6 52.8 48.8 50.5 21.0 14.5 231.5 0.00 0.0000000 40.1 40.0 40.1
2019-12-14 08:00:00 46.3 42.6 43.9 52.8 46.4 50.3 17.2 11.2 223.1 0.00 0.1897254 40.0 39.8 39.9
2019-12-14 09:00:00 51.2 46.3 49.2 46.8 40.6 43.3 19.9 12.1 229.0 0.00 0.5507120 39.9 39.8 39.8
2019-12-14 10:00:00 53.4 50.9 52.2 41.7 38.5 40.2 25.1 17.2 246.3 0.00 0.8903188 40.5 39.9 40.1
2019-12-14 11:00:00 56.0 52.5 53.9 41.8 38.8 40.4 27.1 18.8 246.2 0.00 1.1404370 41.4 40.5 40.9
2019-12-14 12:00:00 57.6 55.3 56.7 40.9 36.3 38.5 30.5 19.7 255.7 0.00 1.2615710 42.8 41.5 42.1
2019-12-14 13:00:00 58.6 56.5 57.4 37.9 33.6 36.0 29.6 19.2 258.9 0.00 1.2541820 44.4 42.8 43.6
2019-12-14 14:00:00 58.7 57.2 57.8 35.4 32.8 34.3 31.0 20.4 247.2 0.00 1.0933320 45.7 44.4 45.1
2019-12-14 15:00:00 58.8 57.3 58.0 33.6 31.7 32.7 29.8 19.1 238.4 0.00 0.8123626 46.5 45.7 46.2
2019-12-14 16:00:00 58.0 56.0 57.0 36.4 31.1 34.2 25.5 15.4 231.6 0.00 0.4636434 47.0 46.5 46.8
2019-12-14 17:00:00 56.1 51.9 54.1 46.3 36.2 40.7 19.6 10.4 239.9 0.00 0.0760114 47.1 47.0 47.1
2019-12-14 18:00:00 51.9 49.7 50.8 51.7 46.3 49.0 16.7 8.9 249.1 0.00 0.0000000 47.0 46.6 46.8
2019-12-14 19:00:00 51.8 49.2 50.7 51.6 46.8 48.7 20.5 13.7 234.6 0.00 0.0000000 46.6 46.0 46.3
2019-12-14 20:00:00 49.9 44.7 47.5 59.0 50.1 54.1 20.5 9.1 240.2 0.00 0.0000000 46.0 45.5 45.8
2019-12-14 21:00:00 47.6 45.2 46.1 57.0 44.1 49.3 13.7 8.5 244.1 0.00 0.0000000 45.5 44.9 45.2
2019-12-14 22:00:00 47.1 45.2 45.8 50.2 45.5 48.2 15.3 9.2 247.2 0.00 0.0000000 44.9 44.4 44.7
2019-12-14 23:00:00 46.0 44.6 45.5 55.5 49.9 51.9 15.3 10.1 249.2 0.00 0.0000000 44.4 43.9 44.1
2019-12-15 00:00:00 45.4 43.9 44.7 57.9 53.5 55.5 16.7 10.2 246.6 0.00 0.0000000 43.9 43.4 43.6

Data is courtesy of the NM Climate Center. DO NOT USE IN LEGAL PROCEEDINGS.